sensor_id;sensor_type;location;lat;lon;timestamp;pressure;altitude;pressure_sealevel;temperature;humidity
70323;BME280;57735;56.264;43.898;2023-05-21T00:00:04;101431.59;;;13.10;88.27
70323;BME280;57735;56.264;43.898;2023-05-21T00:02:40;101422.59;;;13.11;88.32
70323;BME280;57735;56.264;43.898;2023-05-21T00:05:12;101427.78;;;13.13;88.36
70323;BME280;57735;56.264;43.898;2023-05-21T00:07:44;101425.25;;;13.11;88.79
70323;BME280;57735;56.264;43.898;2023-05-21T00:10:16;101421.75;;;13.11;88.81
70323;BME280;57735;56.264;43.898;2023-05-21T00:12:49;101424.28;;;13.12;88.95
70323;BME280;57735;56.264;43.898;2023-05-21T00:15:22;101428.63;;;13.13;88.85
70323;BME280;57735;56.264;43.898;2023-05-21T00:17:53;101422.44;;;13.13;88.74
70323;BME280;57735;56.264;43.898;2023-05-21T00:20:24;101424.97;;;13.14;88.65
70323;BME280;57735;56.264;43.898;2023-05-21T00:22:55;101421.75;;;13.11;88.37
70323;BME280;57735;56.264;43.898;2023-05-21T00:25:26;101430.75;;;13.10;88.39
70323;BME280;57735;56.264;43.898;2023-05-21T00:27:56;101426.09;;;13.12;88.41
70323;BME280;57735;56.264;43.898;2023-05-21T00:30:27;101430.47;;;13.13;88.39
70323;BME280;57735;56.264;43.898;2023-05-21T00:32:58;101432.16;;;13.14;88.46
70323;BME280;57735;56.264;43.898;2023-05-21T00:35:32;101426.81;;;13.14;88.33
70323;BME280;57735;56.264;43.898;2023-05-21T00:38:05;101424.28;;;13.12;88.41
70323;BME280;57735;56.264;43.898;2023-05-21T00:40:38;101422.88;;;13.08;88.69
70323;BME280;57735;56.264;43.898;2023-05-21T00:43:11;101419.34;;;13.08;88.75
70323;BME280;57735;56.264;43.898;2023-05-21T00:45:49;101427.69;;;13.05;88.75
70323;BME280;57735;56.264;43.898;2023-05-21T00:48:23;101418.09;;;13.02;88.88
70323;BME280;57735;56.264;43.898;2023-05-21T00:50:54;101417.25;;;13.02;88.85
70323;BME280;57735;56.264;43.898;2023-05-21T00:53:26;101420.09;;;13.00;89.12
70323;BME280;57735;56.264;43.898;2023-05-21T00:56:00;101415.72;;;12.99;89.49
70323;BME280;57735;56.264;43.898;2023-05-21T00:58:32;101423.03;;;12.97;89.95
70323;BME280;57735;56.264;43.898;2023-05-21T01:01:03;101424.88;;;12.97;89.98
70323;BME280;57735;56.264;43.898;2023-05-21T01:03:36;101423.19;;;12.96;89.91
70323;BME280;57735;56.264;43.898;2023-05-21T01:06:09;101419.81;;;12.93;90.15
70323;BME280;57735;56.264;43.898;2023-05-21T01:08:41;101415.56;;;12.91;90.23
70323;BME280;57735;56.264;43.898;2023-05-21T01:11:14;101418.09;;;12.92;90.22
70323;BME280;57735;56.264;43.898;2023-05-21T01:13:46;101421.94;;;12.90;90.51
70323;BME280;57735;56.264;43.898;2023-05-21T01:16:17;101417.25;;;12.92;90.52
70323;BME280;57735;56.264;43.898;2023-05-21T01:18:48;101412.75;;;12.92;90.64
70323;BME280;57735;56.264;43.898;2023-05-21T01:21:24;101413.59;;;12.93;90.79
70323;BME280;57735;56.264;43.898;2023-05-21T01:23:55;101407.41;;;12.92;90.89
70323;BME280;57735;56.264;43.898;2023-05-21T01:26:26;101405.56;;;12.93;90.91
70323;BME280;57735;56.264;43.898;2023-05-21T01:28:58;101408.09;;;12.94;91.07
70323;BME280;57735;56.264;43.898;2023-05-21T01:31:55;101403.47;;;12.97;91.06
70323;BME280;57735;56.264;43.898;2023-05-21T01:34:29;101414.03;;;12.98;91.26
70323;BME280;57735;56.264;43.898;2023-05-21T01:40:21;101408.94;;;13.05;91.55
70323;BME280;57735;56.264;43.898;2023-05-21T01:42:54;101405.69;;;13.11;91.49
70323;BME280;57735;56.264;43.898;2023-05-21T01:45:26;101406.53;;;13.11;91.61
70323;BME280;57735;56.264;43.898;2023-05-21T01:47:59;101419.50;;;13.16;91.68
70323;BME280;57735;56.264;43.898;2023-05-21T01:50:33;101419.94;;;13.21;91.56
70323;BME280;57735;56.264;43.898;2023-05-21T01:53:05;101405.25;;;13.25;91.31
70323;BME280;57735;56.264;43.898;2023-05-21T01:55:35;101409.59;;;13.26;91.18
70323;BME280;57735;56.264;43.898;2023-05-21T01:58:09;101407.50;;;13.30;91.18
70323;BME280;57735;56.264;43.898;2023-05-21T02:00:40;101414.41;;;13.32;91.08
70323;BME280;57735;56.264;43.898;2023-05-21T02:03:12;101419.47;;;13.35;91.14
70323;BME280;57735;56.264;43.898;2023-05-21T02:05:44;101418.19;;;13.39;91.05
70323;BME280;57735;56.264;43.898;2023-05-21T02:08:16;101421.25;;;13.44;91.06
70323;BME280;57735;56.264;43.898;2023-05-21T02:10:49;101420.66;;;13.50;91.13
70323;BME280;57735;56.264;43.898;2023-05-21T02:13:20;101417.69;;;13.53;91.05
70323;BME280;57735;56.264;43.898;2023-05-21T02:15:52;101423.63;;;13.57;90.85
70323;BME280;57735;56.264;43.898;2023-05-21T02:18:24;101418.78;;;13.60;90.92
70323;BME280;57735;56.264;43.898;2023-05-21T02:20:55;101411.44;;;13.62;90.89
70323;BME280;57735;56.264;43.898;2023-05-21T02:23:26;101415.53;;;13.67;90.76
70323;BME280;57735;56.264;43.898;2023-05-21T02:25:57;101419.88;;;13.68;90.81
70323;BME280;57735;56.264;43.898;2023-05-21T02:28:28;101416.78;;;13.72;90.71
70323;BME280;57735;56.264;43.898;2023-05-21T02:31:01;101422.66;;;13.76;90.87
70323;BME280;57735;56.264;43.898;2023-05-21T02:33:32;101425.88;;;13.79;90.73
70323;BME280;57735;56.264;43.898;2023-05-21T02:36:03;101430.81;;;13.84;90.59
70323;BME280;57735;56.264;43.898;2023-05-21T02:38:34;101431.22;;;13.89;90.31
70323;BME280;57735;56.264;43.898;2023-05-21T02:41:11;101435.25;;;13.93;90.23
70323;BME280;57735;56.264;43.898;2023-05-21T02:43:41;101436.66;;;13.97;89.90
70323;BME280;57735;56.264;43.898;2023-05-21T02:46:12;101437.34;;;13.99;89.67
70323;BME280;57735;56.264;43.898;2023-05-21T02:48:43;101443.28;;;14.03;89.29
70323;BME280;57735;56.264;43.898;2023-05-21T02:51:14;101446.50;;;14.06;89.01
70323;BME280;57735;56.264;43.898;2023-05-21T02:53:45;101444.19;;;14.11;88.67
70323;BME280;57735;56.264;43.898;2023-05-21T02:56:15;101440.38;;;14.14;88.21
70323;BME280;57735;56.264;43.898;2023-05-21T02:58:46;101442.31;;;14.21;87.95
70323;BME280;57735;56.264;43.898;2023-05-21T03:01:17;101438.16;;;14.27;87.76
70323;BME280;57735;56.264;43.898;2023-05-21T03:03:48;101436.72;;;14.32;87.49
70323;BME280;57735;56.264;43.898;2023-05-21T03:06:19;101436.13;;;14.39;87.33
70323;BME280;57735;56.264;43.898;2023-05-21T03:08:49;101437.50;;;14.43;87.07
70323;BME280;57735;56.264;43.898;2023-05-21T03:11:22;101442.59;;;14.46;86.73
70323;BME280;57735;56.264;43.898;2023-05-21T03:13:53;101449.34;;;14.50;86.39
70323;BME280;57735;56.264;43.898;2023-05-21T03:16:24;101458.78;;;14.54;85.59
70323;BME280;57735;56.264;43.898;2023-05-21T03:18:54;101450.78;;;14.62;85.29
70323;BME280;57735;56.264;43.898;2023-05-21T03:21:26;101457.38;;;14.68;84.81
70323;BME280;57735;56.264;43.898;2023-05-21T03:23:59;101453.06;;;14.75;84.78
70323;BME280;57735;56.264;43.898;2023-05-21T03:26:31;101461.38;;;14.81;84.04
70323;BME280;57735;56.264;43.898;2023-05-21T03:29:02;101458.38;;;14.84;83.22
70323;BME280;57735;56.264;43.898;2023-05-21T03:31:33;101457.78;;;14.90;82.81
70323;BME280;57735;56.264;43.898;2023-05-21T03:34:06;101463.34;;;14.97;82.50
70323;BME280;57735;56.264;43.898;2023-05-21T03:36:38;101461.88;;;15.02;81.94
70323;BME280;57735;56.264;43.898;2023-05-21T03:39:08;101460.03;;;15.03;81.39
70323;BME280;57735;56.264;43.898;2023-05-21T03:41:40;101478.16;;;15.01;80.82
70323;BME280;57735;56.264;43.898;2023-05-21T03:44:10;101471.25;;;14.98;80.42
70323;BME280;57735;56.264;43.898;2023-05-21T03:46:41;101469.94;;;15.02;81.03
70323;BME280;57735;56.264;43.898;2023-05-21T03:49:14;101466.25;;;15.04;81.07
70323;BME280;57735;56.264;43.898;2023-05-21T03:51:45;101473.78;;;15.00;80.33
70323;BME280;57735;56.264;43.898;2023-05-21T03:54:18;101482.44;;;14.94;79.58
70323;BME280;57735;56.264;43.898;2023-05-21T03:56:49;101465.34;;;14.95;79.87
70323;BME280;57735;56.264;43.898;2023-05-21T03:59:20;101468.88;;;14.95;80.22
70323;BME280;57735;56.264;43.898;2023-05-21T04:01:51;101475.22;;;14.94;80.48
70323;BME280;57735;56.264;43.898;2023-05-21T04:04:22;101472.94;;;14.99;80.49
70323;BME280;57735;56.264;43.898;2023-05-21T04:06:52;101475.84;;;15.06;79.84
70323;BME280;57735;56.264;43.898;2023-05-21T04:09:23;101478.44;;;15.16;79.81
70323;BME280;57735;56.264;43.898;2023-05-21T04:11:54;101481.19;;;15.24;79.44
70323;BME280;57735;56.264;43.898;2023-05-21T04:14:25;101482.22;;;15.31;79.54
70323;BME280;57735;56.264;43.898;2023-05-21T04:16:56;101481.59;;;15.37;79.05
70323;BME280;57735;56.264;43.898;2023-05-21T04:19:32;101481.97;;;15.42;78.63
70323;BME280;57735;56.264;43.898;2023-05-21T04:22:04;101495.94;;;15.46;78.72
70323;BME280;57735;56.264;43.898;2023-05-21T04:24:37;101500.53;;;15.53;78.27
70323;BME280;57735;56.264;43.898;2023-05-21T04:27:08;101489.22;;;15.67;77.78
70323;BME280;57735;56.264;43.898;2023-05-21T04:29:39;101489.94;;;15.78;76.87
70323;BME280;57735;56.264;43.898;2023-05-21T04:32:12;101493.03;;;15.91;75.99
70323;BME280;57735;56.264;43.898;2023-05-21T04:34:44;101496.81;;;16.14;75.44
70323;BME280;57735;56.264;43.898;2023-05-21T04:37:15;101493.34;;;16.30;73.81
70323;BME280;57735;56.264;43.898;2023-05-21T04:39:53;101494.91;;;16.40;74.32
70323;BME280;57735;56.264;43.898;2023-05-21T04:42:24;101499.13;;;16.51;74.44
70323;BME280;57735;56.264;43.898;2023-05-21T04:44:58;101501.81;;;16.59;74.50
70323;BME280;57735;56.264;43.898;2023-05-21T04:47:36;101502.56;;;16.69;73.64
70323;BME280;57735;56.264;43.898;2023-05-21T04:50:07;101501.41;;;16.72;73.17
70323;BME280;57735;56.264;43.898;2023-05-21T04:52:39;101510.81;;;16.76;73.59
70323;BME280;57735;56.264;43.898;2023-05-21T04:55:10;101512.00;;;16.73;72.36
70323;BME280;57735;56.264;43.898;2023-05-21T04:57:41;101501.72;;;16.69;71.88
70323;BME280;57735;56.264;43.898;2023-05-21T05:00:12;101498.81;;;16.62;72.40
70323;BME280;57735;56.264;43.898;2023-05-21T05:02:46;101505.06;;;16.63;72.22
70323;BME280;57735;56.264;43.898;2023-05-21T05:05:17;101501.88;;;16.67;72.50
70323;BME280;57735;56.264;43.898;2023-05-21T05:07:48;101502.03;;;16.66;71.95
70323;BME280;57735;56.264;43.898;2023-05-21T05:10:18;101509.47;;;16.72;72.44
70323;BME280;57735;56.264;43.898;2023-05-21T05:12:49;101505.78;;;16.73;72.21
70323;BME280;57735;56.264;43.898;2023-05-21T05:15:20;101516.38;;;16.74;72.08
70323;BME280;57735;56.264;43.898;2023-05-21T05:17:51;101515.19;;;16.77;71.55
70323;BME280;57735;56.264;43.898;2023-05-21T05:20:23;101505.94;;;16.88;71.93
70323;BME280;57735;56.264;43.898;2023-05-21T05:22:54;101518.41;;;16.97;71.72
70323;BME280;57735;56.264;43.898;2023-05-21T05:25:25;101521.97;;;17.05;72.04
70323;BME280;57735;56.264;43.898;2023-05-21T05:27:56;101518.09;;;17.08;71.72
70323;BME280;57735;56.264;43.898;2023-05-21T05:30:27;101516.25;;;17.08;71.50
70323;BME280;57735;56.264;43.898;2023-05-21T05:32:58;101514.38;;;17.09;71.85
70323;BME280;57735;56.264;43.898;2023-05-21T05:35:29;101512.50;;;17.09;71.50
70323;BME280;57735;56.264;43.898;2023-05-21T05:38:02;101521.44;;;17.10;72.01
70323;BME280;57735;56.264;43.898;2023-05-21T05:40:33;101523.13;;;17.11;71.82
70323;BME280;57735;56.264;43.898;2023-05-21T05:43:04;101522.63;;;17.07;71.50
70323;BME280;57735;56.264;43.898;2023-05-21T05:45:35;101529.03;;;17.06;70.99
70323;BME280;57735;56.264;43.898;2023-05-21T05:48:06;101527.03;;;17.08;71.11
70323;BME280;57735;56.264;43.898;2023-05-21T05:50:36;101537.44;;;17.12;70.62
70323;BME280;57735;56.264;43.898;2023-05-21T05:53:07;101530.72;;;17.16;70.46
70323;BME280;57735;56.264;43.898;2023-05-21T05:55:39;101538.13;;;17.22;70.80
70323;BME280;57735;56.264;43.898;2023-05-21T05:58:09;101529.34;;;17.28;71.14
70323;BME280;57735;56.264;43.898;2023-05-21T06:00:40;101535.44;;;17.38;70.51
70323;BME280;57735;56.264;43.898;2023-05-21T06:03:11;101532.72;;;17.46;69.88
70323;BME280;57735;56.264;43.898;2023-05-21T06:05:43;101537.94;;;17.56;70.16
70323;BME280;57735;56.264;43.898;2023-05-21T06:08:16;101530.84;;;17.63;69.69
70323;BME280;57735;56.264;43.898;2023-05-21T06:10:46;101532.03;;;17.68;69.73
70323;BME280;57735;56.264;43.898;2023-05-21T06:13:17;101532.72;;;17.70;69.44
70323;BME280;57735;56.264;43.898;2023-05-21T06:15:48;101540.09;;;17.76;69.63
70323;BME280;57735;56.264;43.898;2023-05-21T06:18:19;101532.34;;;17.82;69.03
70323;BME280;57735;56.264;43.898;2023-05-21T06:20:50;101532.50;;;17.80;69.11
70323;BME280;57735;56.264;43.898;2023-05-21T06:23:20;101529.63;;;17.82;69.37
70323;BME280;57735;56.264;43.898;2023-05-21T06:25:51;101539.94;;;17.86;68.97
70323;BME280;57735;56.264;43.898;2023-05-21T06:28:22;101532.81;;;17.93;68.99
70323;BME280;57735;56.264;43.898;2023-05-21T06:30:53;101538.34;;;18.00;67.96
70323;BME280;57735;56.264;43.898;2023-05-21T06:33:24;101532.94;;;18.08;67.79
70323;BME280;57735;56.264;43.898;2023-05-21T06:35:56;101529.00;;;18.19;67.42
70323;BME280;57735;56.264;43.898;2023-05-21T06:38:27;101528.31;;;18.25;67.53
70323;BME280;57735;56.264;43.898;2023-05-21T06:40:58;101536.44;;;18.25;66.84
70323;BME280;57735;56.264;43.898;2023-05-21T06:43:29;101532.50;;;18.27;66.40
70323;BME280;57735;56.264;43.898;2023-05-21T06:46:00;101538.41;;;18.31;66.40
70323;BME280;57735;56.264;43.898;2023-05-21T06:48:31;101543.28;;;18.35;66.56
70323;BME280;57735;56.264;43.898;2023-05-21T06:51:01;101544.97;;;18.36;66.09
70323;BME280;57735;56.264;43.898;2023-05-21T06:53:32;101547.44;;;18.46;65.88
70323;BME280;57735;56.264;43.898;2023-05-21T06:56:03;101550.47;;;18.51;65.33
70323;BME280;57735;56.264;43.898;2023-05-21T06:58:34;101550.13;;;18.54;64.68
70323;BME280;57735;56.264;43.898;2023-05-21T07:01:07;101552.97;;;18.61;64.46
70323;BME280;57735;56.264;43.898;2023-05-21T07:03:38;101546.69;;;18.68;63.86
70323;BME280;57735;56.264;43.898;2023-05-21T07:06:09;101554.75;;;18.76;63.24
70323;BME280;57735;56.264;43.898;2023-05-21T07:08:40;101556.50;;;18.92;62.82
70323;BME280;57735;56.264;43.898;2023-05-21T07:11:14;101557.88;;;19.11;63.30
70323;BME280;57735;56.264;43.898;2023-05-21T07:13:45;101552.31;;;19.27;63.39
70323;BME280;57735;56.264;43.898;2023-05-21T07:16:18;101555.47;;;19.39;62.64
70323;BME280;57735;56.264;43.898;2023-05-21T07:18:49;101552.84;;;19.45;62.07
70323;BME280;57735;56.264;43.898;2023-05-21T07:21:20;101562.56;;;19.40;61.11
70323;BME280;57735;56.264;43.898;2023-05-21T07:23:51;101562.13;;;19.28;60.84
70323;BME280;57735;56.264;43.898;2023-05-21T07:26:22;101565.78;;;19.35;61.20
70323;BME280;57735;56.264;43.898;2023-05-21T07:28:55;101571.50;;;19.40;61.10
70323;BME280;57735;56.264;43.898;2023-05-21T07:31:28;101573.84;;;19.43;61.40
70323;BME280;57735;56.264;43.898;2023-05-21T07:33:59;101578.00;;;19.54;61.74
70323;BME280;57735;56.264;43.898;2023-05-21T07:36:30;101571.97;;;19.67;61.34
70323;BME280;57735;56.264;43.898;2023-05-21T07:39:03;101568.25;;;19.82;60.85
70323;BME280;57735;56.264;43.898;2023-05-21T07:41:34;101561.25;;;20.03;60.11
70323;BME280;57735;56.264;43.898;2023-05-21T07:44:05;101570.34;;;20.10;59.23
70323;BME280;57735;56.264;43.898;2023-05-21T07:46:36;101569.19;;;20.19;58.55
70323;BME280;57735;56.264;43.898;2023-05-21T07:49:07;101562.59;;;20.36;58.00
70323;BME280;57735;56.264;43.898;2023-05-21T07:51:40;101561.06;;;20.48;56.93
70323;BME280;57735;56.264;43.898;2023-05-21T07:54:11;101564.25;;;20.52;57.38
70323;BME280;57735;56.264;43.898;2023-05-21T07:56:42;101568.06;;;20.58;57.01
70323;BME280;57735;56.264;43.898;2023-05-21T07:59:15;101580.28;;;20.68;57.46
70323;BME280;57735;56.264;43.898;2023-05-21T08:01:46;101579.34;;;20.76;57.26
70323;BME280;57735;56.264;43.898;2023-05-21T08:04:17;101578.38;;;20.83;57.55
70323;BME280;57735;56.264;43.898;2023-05-21T08:06:50;101578.81;;;20.87;56.89
70323;BME280;57735;56.264;43.898;2023-05-21T08:09:21;101577.88;;;20.95;56.52
70323;BME280;57735;56.264;43.898;2023-05-21T08:11:52;101582.59;;;21.07;57.24
70323;BME280;57735;56.264;43.898;2023-05-21T08:14:23;101579.09;;;21.13;57.09
70323;BME280;57735;56.264;43.898;2023-05-21T08:16:53;101576.78;;;21.10;56.34
70323;BME280;57735;56.264;43.898;2023-05-21T08:19:27;101575.09;;;21.09;56.52
70323;BME280;57735;56.264;43.898;2023-05-21T08:21:58;101575.50;;;21.06;56.72
70323;BME280;57735;56.264;43.898;2023-05-21T08:24:29;101581.03;;;20.98;55.65
70323;BME280;57735;56.264;43.898;2023-05-21T08:27:00;101582.09;;;20.82;54.82
70323;BME280;57735;56.264;43.898;2023-05-21T08:29:31;101586.03;;;20.80;54.73
70323;BME280;57735;56.264;43.898;2023-05-21T08:32:02;101588.00;;;20.86;54.71
70323;BME280;57735;56.264;43.898;2023-05-21T08:34:36;101585.56;;;20.91;54.28
70323;BME280;57735;56.264;43.898;2023-05-21T08:37:07;101589.16;;;20.98;53.36
70323;BME280;57735;56.264;43.898;2023-05-21T08:39:38;101589.81;;;21.00;53.17
70323;BME280;57735;56.264;43.898;2023-05-21T08:42:17;101593.94;;;20.96;53.29
70323;BME280;57735;56.264;43.898;2023-05-21T08:44:50;101592.19;;;20.88;53.88
70323;BME280;57735;56.264;43.898;2023-05-21T08:47:26;101598.84;;;20.86;53.91
70323;BME280;57735;56.264;43.898;2023-05-21T08:49:59;101604.25;;;20.86;54.06
70323;BME280;57735;56.264;43.898;2023-05-21T08:52:32;101613.50;;;20.92;53.91
70323;BME280;57735;56.264;43.898;2023-05-21T08:55:03;101597.38;;;21.05;54.19
70323;BME280;57735;56.264;43.898;2023-05-21T08:57:35;101606.66;;;21.17;53.43
70323;BME280;57735;56.264;43.898;2023-05-21T09:00:07;101606.41;;;21.27;53.11
70323;BME280;57735;56.264;43.898;2023-05-21T09:02:38;101601.06;;;21.18;52.62
70323;BME280;57735;56.264;43.898;2023-05-21T09:05:14;101609.03;;;21.20;53.24
70323;BME280;57735;56.264;43.898;2023-05-21T09:07:52;101613.13;;;21.16;53.06
70323;BME280;57735;56.264;43.898;2023-05-21T09:10:31;101611.41;;;21.08;52.84
70323;BME280;57735;56.264;43.898;2023-05-21T09:13:04;101619.63;;;21.00;53.49
70323;BME280;57735;56.264;43.898;2023-05-21T09:15:39;101617.94;;;20.99;54.40
70323;BME280;57735;56.264;43.898;2023-05-21T09:18:12;101616.34;;;21.05;54.06
70323;BME280;57735;56.264;43.898;2023-05-21T09:20:43;101611.81;;;21.12;52.32
70323;BME280;57735;56.264;43.898;2023-05-21T09:23:16;101605.56;;;21.26;51.93
70323;BME280;57735;56.264;43.898;2023-05-21T09:25:50;101618.91;;;21.49;52.03
70323;BME280;57735;56.264;43.898;2023-05-21T09:28:21;101620.13;;;21.68;50.85
70323;BME280;57735;56.264;43.898;2023-05-21T09:30:54;101612.72;;;21.83;50.69
70323;BME280;57735;56.264;43.898;2023-05-21T09:33:26;101606.91;;;21.86;49.18
70323;BME280;57735;56.264;43.898;2023-05-21T09:36:01;101606.31;;;21.90;48.85
70323;BME280;57735;56.264;43.898;2023-05-21T09:38:33;101605.59;;;22.03;49.23
70323;BME280;57735;56.264;43.898;2023-05-21T09:41:06;101592.53;;;22.20;48.78
70323;BME280;57735;56.264;43.898;2023-05-21T09:43:37;101599.56;;;22.42;47.84
70323;BME280;57735;56.264;43.898;2023-05-21T09:46:11;101601.84;;;22.39;46.80
70323;BME280;57735;56.264;43.898;2023-05-21T09:48:42;101603.50;;;22.40;46.60
70323;BME280;57735;56.264;43.898;2023-05-21T09:51:17;101593.91;;;22.44;46.86
70323;BME280;57735;56.264;43.898;2023-05-21T09:53:55;101592.25;;;22.49;46.63
70323;BME280;57735;56.264;43.898;2023-05-21T09:56:28;101600.22;;;22.51;46.30
70323;BME280;57735;56.264;43.898;2023-05-21T09:59:02;101599.75;;;22.41;47.04
70323;BME280;57735;56.264;43.898;2023-05-21T10:01:36;101604.75;;;22.37;47.37
70323;BME280;57735;56.264;43.898;2023-05-21T10:04:08;101607.06;;;22.40;47.89
70323;BME280;57735;56.264;43.898;2023-05-21T10:06:41;101604.16;;;22.48;47.91
70323;BME280;57735;56.264;43.898;2023-05-21T10:09:14;101604.81;;;22.50;47.06
70323;BME280;57735;56.264;43.898;2023-05-21T10:11:48;101610.19;;;22.37;46.25
70323;BME280;57735;56.264;43.898;2023-05-21T10:14:26;101601.38;;;22.28;46.29
70323;BME280;57735;56.264;43.898;2023-05-21T10:17:01;101614.31;;;22.26;46.00
70323;BME280;57735;56.264;43.898;2023-05-21T10:19:33;101601.00;;;22.38;46.38
70323;BME280;57735;56.264;43.898;2023-05-21T10:22:06;101613.34;;;22.47;46.38
70323;BME280;57735;56.264;43.898;2023-05-21T10:24:39;101608.56;;;22.49;44.87
70323;BME280;57735;56.264;43.898;2023-05-21T10:27:11;101613.00;;;22.57;44.72
70323;BME280;57735;56.264;43.898;2023-05-21T10:29:44;101607.16;;;22.67;45.04
70323;BME280;57735;56.264;43.898;2023-05-21T10:32:15;101608.13;;;22.87;45.18
70323;BME280;57735;56.264;43.898;2023-05-21T10:34:47;101611.06;;;22.92;44.86
70323;BME280;57735;56.264;43.898;2023-05-21T10:37:18;101612.13;;;22.91;45.41
70323;BME280;57735;56.264;43.898;2023-05-21T10:39:49;101607.50;;;22.98;45.50
70323;BME280;57735;56.264;43.898;2023-05-21T10:42:40;101611.13;;;23.18;45.02
70323;BME280;57735;56.264;43.898;2023-05-21T10:54:02;101606.53;;;22.58;45.74
70323;BME280;57735;56.264;43.898;2023-05-21T10:56:41;101613.09;;;22.36;46.72
70323;BME280;57735;56.264;43.898;2023-05-21T11:02:02;101611.50;;;23.02;46.03
70323;BME280;57735;56.264;43.898;2023-05-21T11:04:35;101607.78;;;23.23;46.23
70323;BME280;57735;56.264;43.898;2023-05-21T11:07:12;101607.59;;;23.24;46.86
70323;BME280;57735;56.264;43.898;2023-05-21T11:09:42;101606.94;;;23.09;46.43
70323;BME280;57735;56.264;43.898;2023-05-21T11:12:13;101607.91;;;22.88;46.97
70323;BME280;57735;56.264;43.898;2023-05-21T11:14:57;101610.72;;;22.60;46.99
70323;BME280;57735;56.264;43.898;2023-05-21T11:17:40;101615.16;;;22.34;47.64
70323;BME280;57735;56.264;43.898;2023-05-21T11:20:13;101613.50;;;22.33;46.91
70323;BME280;57735;56.264;43.898;2023-05-21T11:22:44;101608.16;;;22.52;46.32
70323;BME280;57735;56.264;43.898;2023-05-21T11:25:17;101607.13;;;22.53;46.75
70323;BME280;57735;56.264;43.898;2023-05-21T11:27:52;101604.09;;;22.76;46.93
70323;BME280;57735;56.264;43.898;2023-05-21T11:30:23;101607.91;;;22.88;46.31
70323;BME280;57735;56.264;43.898;2023-05-21T11:35:57;101600.69;;;23.28;44.48
70323;BME280;57735;56.264;43.898;2023-05-21T11:38:32;101595.69;;;23.65;45.18
70323;BME280;57735;56.264;43.898;2023-05-21T11:41:03;101595.91;;;23.90;44.43
70323;BME280;57735;56.264;43.898;2023-05-21T11:43:39;101590.41;;;24.10;42.65
70323;BME280;57735;56.264;43.898;2023-05-21T11:46:11;101587.69;;;24.29;42.72
70323;BME280;57735;56.264;43.898;2023-05-21T11:48:43;101589.31;;;24.37;42.73
70323;BME280;57735;56.264;43.898;2023-05-21T11:51:16;101592.06;;;24.30;42.44
70323;BME280;57735;56.264;43.898;2023-05-21T11:53:47;101591.84;;;24.19;42.20
70323;BME280;57735;56.264;43.898;2023-05-21T11:56:18;101584.56;;;24.13;42.38
70323;BME280;57735;56.264;43.898;2023-05-21T11:58:55;101582.25;;;24.03;41.98
70323;BME280;57735;56.264;43.898;2023-05-21T12:01:26;101583.13;;;23.77;40.77
70323;BME280;57735;56.264;43.898;2023-05-21T12:03:57;101580.84;;;23.61;41.39
70323;BME280;57735;56.264;43.898;2023-05-21T12:06:28;101587.91;;;23.49;41.36
70323;BME280;57735;56.264;43.898;2023-05-21T12:09:00;101579.13;;;23.40;40.99
70323;BME280;57735;56.264;43.898;2023-05-21T12:11:31;101578.72;;;23.50;40.67
70323;BME280;57735;56.264;43.898;2023-05-21T12:14:02;101578.97;;;23.55;40.91
70323;BME280;57735;56.264;43.898;2023-05-21T12:16:33;101587.50;;;23.39;41.08
70323;BME280;57735;56.264;43.898;2023-05-21T12:19:05;101579.13;;;23.20;41.21
70323;BME280;57735;56.264;43.898;2023-05-21T12:21:36;101576.59;;;23.06;42.00
70323;BME280;57735;56.264;43.898;2023-05-21T12:24:07;101577.59;;;22.91;41.99
70323;BME280;57735;56.264;43.898;2023-05-21T12:26:38;101594.09;;;22.83;42.32
70323;BME280;57735;56.264;43.898;2023-05-21T12:29:11;101588.38;;;22.72;42.28
70323;BME280;57735;56.264;43.898;2023-05-21T12:31:47;101579.53;;;22.63;42.46
70323;BME280;57735;56.264;43.898;2023-05-21T12:37:22;101583.91;;;22.51;43.04
70323;BME280;57735;56.264;43.898;2023-05-21T12:40:03;101575.72;;;22.92;43.54
70323;BME280;57735;56.264;43.898;2023-05-21T12:42:42;101574.47;;;23.01;43.38
70323;BME280;57735;56.264;43.898;2023-05-21T12:45:13;101566.97;;;23.29;42.66
70323;BME280;57735;56.264;43.898;2023-05-21T12:47:48;101575.34;;;23.35;42.28
70323;BME280;57735;56.264;43.898;2023-05-21T12:50:20;101576.16;;;24.08;41.41
70323;BME280;57735;56.264;43.898;2023-05-21T12:52:55;101572.75;;;25.21;39.69
70323;BME280;57735;56.264;43.898;2023-05-21T12:55:27;101573.16;;;26.36;37.60
70323;BME280;57735;56.264;43.898;2023-05-21T12:58:05;101570.09;;;26.07;37.21
70323;BME280;57735;56.264;43.898;2023-05-21T13:00:40;101564.06;;;25.81;37.64
70323;BME280;57735;56.264;43.898;2023-05-21T13:03:11;101571.69;;;25.47;38.50
70323;BME280;57735;56.264;43.898;2023-05-21T13:05:43;101574.59;;;24.96;39.45
70323;BME280;57735;56.264;43.898;2023-05-21T13:08:14;101562.69;;;25.15;39.73
70323;BME280;57735;56.264;43.898;2023-05-21T13:10:55;101564.91;;;25.99;38.38
70323;BME280;57735;56.264;43.898;2023-05-21T13:13:26;101575.72;;;25.45;37.45
70323;BME280;57735;56.264;43.898;2023-05-21T13:15:57;101574.00;;;24.81;39.00
70323;BME280;57735;56.264;43.898;2023-05-21T13:18:29;101568.34;;;24.44;39.43
70323;BME280;57735;56.264;43.898;2023-05-21T13:21:03;101566.69;;;24.17;40.19
70323;BME280;57735;56.264;43.898;2023-05-21T13:23:34;101564.84;;;24.11;41.14
70323;BME280;57735;56.264;43.898;2023-05-21T13:26:04;101567.13;;;24.14;40.26